Yellowstone Regional Airport
KCOD : rendu visible

Aérodrome :











RETROUVEZ-NOUS SUR...

 
LOGIN :

S'inscrire | Disclaimer

   EN    FR    IT 

 









Légende :    VFR   VFR Marginal   IFR   IFR Intensif   IFR Très Intensif
Visi : 
Plafond : 
>= 8 km
>= 3000ft
5 à 8 km
1000 à 3000 ft
1500m à 5 km
500 à 1000 ft
800 à 1500m
200 à 500 ft
< 800m
< 200 ft
Symboles :   Orages  Brouillard  Fortes neiges  Fortes précipitations  Vent > 20 kt






- Altitude de l'aérodrome : 5102 ft


KCOD - Yellowstone Regional

DERNIER METAR :
  • 290556Z AUTO VRB04KT 10SM CLR 04/M08 A2999 RMK AO2 SLP165 T00391083 10083 20028 51008

METARs EXPIRÉS :
  • 290456Z AUTO 26008KT 10SM CLR 03/M09 A2998 RMK AO2 SLP165 T00331089
  • 290356Z AUTO 26007KT 10SM FEW090 04/M09 A2998 RMK AO2 SLP161 T00441089

TAF KCOD
Valide du 29 à 06h jusqu'au 30 à 06h UTC


290521Z 2906/3006 25011KT P6SM SCT080
FM291200 VRB05KT P6SM SKC
FM291900 23010KT P6SM SCT080
FM300000 24006KT P6SM VCSH BKN080
FM300230 24006KT P6SM SCT090



MET'MAP, la Météo Aéronautique d'un coup d'oeil ! - Copyright ORBIFLY Décembre 2007 - Disclaimer

ORBIFLY MET'MAP TEAM :

Programmation & Développement : Alexandra Zaïnal
Sur une idée originale de : Baudouin d'Aumeries
Assistance à la programmation : Marc-Olivier Méhu
Soutien technique & logistique : Manuel Goepfert

Contact : metmap@orbifly.com




SOURCES & CREDITS :

   NOAA       Earth
Advisory